Bangkok, Thailand

10:13 AM +07 on Augusti 15, 2018 (GMT +0700)
Parkway Chalet | | Change Station

Elev 5 ft 13.79 °N, 100.73 °E | Updated 3 seconds ago

Växlande molnighet
Växlande molnighet
90 °F
Feels Like 108 °F
N
0.22
Vind Växlande Vind from S/SV
Gusts 2.5 miles/tim

Idag
High -- | Low -- °F
--% Chance of Precip.
Yesterday
High -- | Low -- °F
Precip. -- tum
Lufttryck 29.80 tum
Sikt 6.2 miles
Molnigt Few 2000 ft
Växlande molnighet 3000 ft
Värmeindex 108 °F
Daggpunkt 80 °F
Luftfuktighet 73%
Rainfall 0.00 tum
Snow Depth Not available.
6:03 AM 6:38 PM
Första kvarteret, 19% visible
METAR VTBD 150300Z 22005KT 170V320 9999 FEW020 SCT030 31/24 Q1009 NOSIG
Lufttryck 29.80 tum
Sikt 6.2 miles
Molnigt Few 2000 ft
Växlande molnighet 3000 ft
Värmeindex 108 °F
Daggpunkt 80 °F
Luftfuktighet 73%
Rainfall 0.00 tum
Snow Depth Not available.
6:03 AM 6:38 PM
Första kvarteret, 19% visible
METAR VTBD 150300Z 22005KT 170V320 9999 FEW020 SCT030 31/24 Q1009 NOSIG

Get Severe Weather Alerts

Thanks for signing up!

Be on the lookout for a verification email in your inbox.

You'll start receiving the daily forecast at 6 AM.

×

10-Day Weather Forecast

No radar image for this location.
×

Almanac

Astronomi

Aug. 15, 2018 Rise Set
Actual Time
Civil Twilight
Nautical Twilight
Astronomical Twilight
Månen
Length Of Visible Light
Dagens längd
Tomorrow will be .
, % of the Moon is Illuminated

Today's Extremes

Country Highs Country Lows

Community

WunderPhotos

Category 6

Welcome to Category 6. This is the collective home for Weather Underground's featured writeups by Dr. Jeff Masters (right), Bob Henson (left), Chris Burt, and other regular contributors.

Nearby

Air Quality

  Air Quality AQ Index Pollutant
Not available.

Snödjup

Station Depth Elevation

Earthquake Activity

Stad Distance Mag. Time & Date
Minimum magnitude displayed is 2.5.

Coastal Water Temperatures

Plats Temperatur

Stations

Nearby Weather Stations

Station Location Temp Vindavkylning Daggpunkt Luftfuktighet Vind Precip. Elev Uppdaterad Type